createdAt,value
2023-05-08T00:00:43.378Z,87.92
2023-05-08T00:03:11.305Z,88.00
2023-05-08T00:05:39.126Z,87.06
2023-05-08T00:08:06.898Z,87.03
2023-05-08T00:10:36.189Z,86.69
2023-05-08T00:13:03.970Z,86.46
2023-05-08T00:15:31.758Z,86.85
2023-05-08T00:17:59.651Z,86.92
2023-05-08T00:20:27.415Z,86.46
2023-05-08T00:22:55.124Z,86.60
2023-05-08T00:25:22.868Z,87.38
2023-05-08T00:27:52.354Z,86.96
2023-05-08T00:30:20.370Z,86.83
2023-05-08T00:32:48.166Z,87.11
2023-05-08T00:35:16.018Z,86.68
2023-05-08T00:37:43.832Z,87.36
2023-05-08T00:40:12.916Z,87.17
2023-05-08T00:42:40.824Z,87.11
2023-05-08T00:45:11.147Z,86.71
2023-05-08T00:47:39.013Z,86.49
2023-05-08T00:50:07.586Z,86.53
2023-05-08T00:52:35.356Z,85.66
2023-05-08T00:55:03.906Z,86.22
2023-05-08T00:57:35.691Z,85.45
2023-05-08T01:00:05.537Z,85.75
2023-05-08T01:02:35.258Z,86.35
2023-05-08T01:05:04.794Z,86.26
2023-05-08T01:07:32.860Z,85.75
2023-05-08T01:10:00.616Z,85.73
2023-05-08T01:12:36.301Z,86.55
2023-05-08T01:15:10.869Z,86.34
2023-05-08T01:17:56.902Z,86.69
2023-05-08T01:20:33.436Z,85.95
2023-05-08T01:23:18.103Z,86.88
2023-05-08T01:26:33.578Z,86.70
2023-05-08T01:29:37.979Z,86.49
2023-05-08T01:32:13.842Z,86.42
2023-05-08T01:34:46.293Z,87.10
2023-05-08T01:37:17.111Z,87.29
2023-05-08T01:39:46.988Z,86.45
2023-05-08T01:42:19.785Z,87.19
2023-05-08T01:45:00.543Z,87.31
2023-05-08T01:47:32.286Z,86.35
2023-05-08T01:50:05.630Z,87.45
2023-05-08T01:52:36.018Z,86.59
2023-05-08T01:55:06.468Z,87.00
2023-05-08T01:57:35.898Z,86.94
2023-05-08T02:00:05.900Z,87.27
2023-05-08T02:02:36.199Z,86.82
2023-05-08T02:05:05.945Z,87.21
2023-05-08T02:07:35.288Z,87.09
2023-05-08T02:10:03.915Z,86.87
2023-05-08T02:12:32.525Z,86.53
2023-05-08T02:15:01.739Z,86.84
2023-05-08T02:17:30.884Z,86.34
2023-05-08T02:20:02.000Z,86.15
2023-05-08T02:22:29.967Z,86.62
2023-05-08T02:24:58.873Z,86.59
2023-05-08T02:27:28.031Z,86.92
2023-05-08T02:29:56.198Z,86.40
2023-05-08T02:32:26.686Z,86.64
2023-05-08T02:35:02.541Z,86.87
2023-05-08T02:37:33.348Z,85.84
2023-05-08T02:40:02.997Z,86.39
2023-05-08T02:42:31.673Z,86.26
2023-05-08T02:44:59.451Z,85.65
2023-05-08T02:47:29.199Z,85.79
2023-05-08T02:50:02.274Z,85.11
2023-05-08T02:52:33.678Z,85.61
2023-05-08T02:55:04.642Z,85.67
2023-05-08T02:57:37.332Z,85.83
2023-05-08T03:00:07.302Z,85.58
2023-05-08T03:02:39.500Z,85.77
2023-05-08T03:05:14.942Z,85.83
2023-05-08T03:07:45.118Z,85.12
2023-05-08T03:10:15.629Z,84.73
2023-05-08T03:12:47.301Z,85.34
2023-05-08T03:15:20.549Z,85.24
2023-05-08T03:17:50.068Z,84.32
2023-05-08T03:20:19.306Z,85.01
2023-05-08T03:22:49.364Z,84.11
2023-05-08T03:25:18.506Z,84.05
2023-05-08T03:27:47.089Z,84.02
2023-05-08T03:30:16.017Z,83.60
2023-05-08T03:32:46.085Z,83.52
2023-05-08T03:35:15.207Z,83.30
2023-05-08T03:37:43.386Z,83.20
2023-05-08T03:40:13.378Z,83.56
2023-05-08T03:42:42.232Z,83.43
2023-05-08T03:45:11.450Z,83.47
2023-05-08T03:47:40.547Z,83.03
2023-05-08T03:50:10.297Z,83.40
2023-05-08T03:52:39.467Z,82.85
2023-05-08T03:55:08.496Z,83.30
2023-05-08T03:57:42.070Z,82.95
2023-05-08T04:00:14.831Z,83.02
2023-05-08T04:02:48.444Z,82.89
2023-05-08T04:05:22.868Z,82.70
2023-05-08T04:07:54.694Z,82.73
2023-05-08T04:10:26.284Z,82.76
2023-05-08T04:12:59.942Z,82.63
2023-05-08T04:15:30.832Z,81.93
2023-05-08T04:18:01.253Z,81.68
2023-05-08T04:20:30.719Z,81.56
2023-05-08T04:22:59.891Z,81.21
2023-05-08T04:25:27.772Z,81.62
2023-05-08T04:27:57.727Z,81.45
2023-05-08T04:30:25.883Z,81.31
2023-05-08T04:32:53.853Z,81.21
2023-05-08T04:35:21.954Z,81.76
2023-05-08T04:37:49.826Z,81.26
2023-05-08T04:40:17.693Z,81.50
2023-05-08T04:42:47.497Z,81.21
2023-05-08T04:45:17.804Z,81.31
2023-05-08T04:47:45.659Z,81.46
2023-05-08T04:50:13.535Z,81.30
2023-05-08T04:52:41.514Z,81.71
2023-05-08T04:55:10.589Z,81.31
2023-05-08T04:57:38.528Z,81.39
2023-05-08T05:00:07.650Z,81.31
2023-05-08T05:02:36.858Z,80.95
2023-05-08T05:05:04.891Z,81.18
2023-05-08T05:07:32.691Z,81.44
2023-05-08T05:10:01.245Z,81.34
2023-05-08T05:12:29.034Z,80.87
2023-05-08T05:14:56.860Z,81.18
2023-05-08T05:17:24.785Z,81.56
2023-05-08T05:19:54.176Z,81.18
2023-05-08T05:22:21.973Z,81.13
2023-05-08T05:24:49.776Z,81.24
2023-05-08T05:27:19.904Z,80.74
2023-05-08T05:29:49.031Z,80.79
2023-05-08T05:32:16.823Z,80.65
2023-05-08T05:34:44.610Z,81.42
2023-05-08T05:37:13.752Z,81.07
2023-05-08T05:39:41.580Z,81.30
2023-05-08T05:42:09.363Z,81.25
2023-05-08T05:44:37.938Z,81.02
2023-05-08T05:47:06.359Z,80.85
2023-05-08T05:49:34.483Z,80.99
2023-05-08T05:52:02.473Z,81.21
2023-05-08T05:54:31.623Z,81.22
2023-05-08T05:56:59.433Z,81.36
2023-05-08T05:59:27.254Z,81.20
2023-05-08T06:01:55.051Z,81.23
2023-05-08T06:04:22.969Z,80.87
2023-05-08T06:06:50.787Z,80.96
2023-05-08T06:09:18.574Z,80.88
2023-05-08T06:11:47.715Z,80.94
2023-05-08T06:14:15.542Z,80.51
2023-05-08T06:16:45.073Z,80.88
2023-05-08T06:19:12.885Z,80.63
2023-05-08T06:21:41.021Z,80.66
2023-05-08T06:24:09.254Z,80.41
2023-05-08T06:26:37.095Z,80.48
2023-05-08T06:29:07.557Z,80.80
2023-05-08T06:31:35.432Z,80.19
2023-05-08T06:34:03.288Z,80.46
2023-05-08T06:36:31.867Z,80.07
2023-05-08T06:38:59.641Z,80.12
2023-05-08T06:41:27.414Z,80.15
2023-05-08T06:43:55.194Z,80.42
2023-05-08T06:46:24.432Z,80.53
2023-05-08T06:48:52.240Z,80.60
2023-05-08T06:51:23.221Z,80.49
2023-05-08T06:53:51.180Z,80.68
2023-05-08T06:56:18.973Z,80.51
2023-05-08T06:58:53.772Z,80.88
2023-05-08T07:01:34.125Z,80.50
2023-05-08T07:04:01.946Z,80.29
2023-05-08T07:06:31.085Z,80.62
2023-05-08T07:08:59.008Z,80.23
2023-05-08T07:11:26.875Z,80.13
2023-05-08T07:13:54.902Z,79.83
2023-05-08T07:16:22.727Z,79.58
2023-05-08T07:18:51.885Z,79.06
2023-05-08T07:21:21.289Z,78.78
2023-05-08T07:23:51.726Z,78.68
2023-05-08T07:26:19.756Z,77.49
2023-05-08T07:28:47.533Z,77.18
2023-05-08T07:31:15.428Z,77.79
2023-05-08T07:33:43.492Z,77.27
2023-05-08T07:36:12.687Z,77.62
2023-05-08T07:38:40.487Z,76.74
2023-05-08T07:41:08.674Z,76.17
2023-05-08T07:43:37.055Z,75.73
2023-05-08T07:46:04.925Z,75.83
2023-05-08T07:48:32.722Z,74.72
2023-05-08T07:51:00.514Z,74.85
2023-05-08T07:53:29.671Z,75.29
2023-05-08T07:55:57.461Z,75.12
2023-05-08T07:58:25.274Z,74.64
2023-05-08T08:00:53.762Z,74.17
2023-05-08T08:03:21.625Z,74.20
2023-05-08T08:05:49.492Z,74.38
2023-05-08T08:08:17.311Z,75.37
2023-05-08T08:10:46.465Z,74.59
2023-05-08T08:13:14.246Z,75.52
2023-05-08T08:15:42.081Z,74.65
2023-05-08T08:18:10.024Z,74.41
2023-05-08T08:20:37.874Z,75.15
2023-05-08T08:23:06.071Z,74.94
2023-05-08T08:25:34.089Z,75.39
2023-05-08T08:28:03.229Z,74.98
2023-05-08T08:30:31.017Z,74.85
2023-05-08T08:33:02.211Z,75.08
2023-05-08T08:35:30.394Z,74.51
2023-05-08T08:37:58.278Z,75.20
2023-05-08T08:40:26.343Z,75.54
2023-05-08T08:42:54.128Z,75.62
2023-05-08T08:45:23.371Z,75.55
2023-05-08T08:47:53.749Z,76.00
2023-05-08T08:50:22.158Z,76.21
2023-05-08T08:52:57.284Z,75.48
2023-05-08T08:55:26.777Z,76.48
2023-05-08T08:58:01.192Z,75.72
2023-05-08T09:00:32.198Z,75.66
2023-05-08T09:03:00.155Z,74.61
2023-05-08T09:05:27.990Z,74.77
2023-05-08T09:07:56.611Z,75.83
2023-05-08T09:10:25.740Z,75.63
2023-05-08T09:12:53.897Z,75.78
2023-05-08T09:15:22.141Z,76.25
2023-05-08T09:17:51.358Z,75.68
2023-05-08T09:20:19.518Z,76.00
2023-05-08T09:22:48.386Z,76.77
2023-05-08T09:25:16.402Z,76.68
2023-05-08T09:27:44.268Z,77.82
2023-05-08T09:30:14.427Z,77.24
2023-05-08T09:32:43.325Z,78.06
2023-05-08T09:35:13.710Z,77.96
2023-05-08T09:37:43.089Z,77.71
2023-05-08T09:40:16.300Z,77.12
2023-05-08T09:42:44.112Z,78.10
2023-05-08T09:45:12.904Z,78.40
2023-05-08T09:47:49.402Z,78.51
2023-05-08T09:50:18.928Z,77.99
2023-05-08T09:52:48.625Z,77.39
2023-05-08T09:55:16.484Z,78.21
2023-05-08T09:57:54.188Z,77.80
2023-05-08T10:00:22.864Z,77.81
2023-05-08T10:03:01.322Z,77.12
2023-05-08T10:05:32.253Z,77.28
2023-05-08T10:08:01.253Z,77.61
2023-05-08T10:10:30.985Z,77.29
2023-05-08T10:12:59.500Z,76.88
2023-05-08T10:15:31.193Z,76.73
2023-05-08T10:18:04.390Z,76.50
2023-05-08T10:20:34.857Z,75.35
2023-05-08T10:23:03.422Z,75.46
2023-05-08T10:25:33.998Z,74.85
2023-05-08T10:28:08.465Z,74.37
2023-05-08T10:30:39.870Z,73.29
2023-05-08T10:33:11.218Z,74.34
2023-05-08T10:35:40.412Z,74.48
2023-05-08T10:38:09.920Z,74.41
2023-05-08T10:40:38.873Z,73.89
2023-05-08T10:43:08.108Z,74.58
2023-05-08T10:45:36.156Z,74.28
2023-05-08T10:48:06.512Z,73.96
2023-05-08T10:50:46.331Z,73.59
2023-05-08T10:53:18.277Z,73.63
2023-05-08T10:55:47.486Z,73.29
2023-05-08T10:58:16.426Z,74.28
2023-05-08T11:01:12.899Z,73.83
2023-05-08T11:03:42.845Z,75.54
2023-05-08T11:06:12.227Z,75.18
2023-05-08T11:08:51.059Z,75.15
2023-05-08T11:11:26.841Z,76.23
2023-05-08T11:13:59.225Z,76.36
2023-05-08T11:17:04.598Z,75.98
2023-05-08T11:19:32.560Z,76.08
2023-05-08T11:22:23.447Z,75.43
2023-05-08T11:24:54.705Z,76.00
2023-05-08T11:28:04.302Z,76.36
2023-05-08T11:30:37.326Z,76.64
2023-05-08T11:33:18.075Z,76.38
2023-05-08T11:35:51.515Z,76.88
2023-05-08T11:38:25.419Z,76.17
2023-05-08T11:40:59.011Z,75.74
2023-05-08T11:43:28.443Z,76.11
2023-05-08T11:46:01.447Z,75.50
2023-05-08T11:48:29.196Z,75.23
2023-05-08T11:50:57.162Z,75.97
2023-05-08T11:53:26.460Z,75.81
2023-05-08T11:55:54.804Z,74.54
2023-05-08T11:58:23.078Z,74.28
2023-05-08T12:00:51.247Z,74.52
2023-05-08T12:03:21.082Z,74.32
2023-05-08T12:05:49.923Z,75.15
2023-05-08T12:08:18.710Z,74.36
2023-05-08T12:10:52.649Z,73.45
2023-05-08T12:13:21.790Z,74.20
2023-05-08T12:15:51.386Z,73.99
2023-05-08T12:18:19.170Z,74.94
2023-05-08T12:20:47.319Z,75.01
2023-05-08T12:23:15.136Z,74.66
2023-05-08T12:25:43.048Z,75.25
2023-05-08T12:28:12.344Z,74.69
2023-05-08T12:30:40.188Z,74.50
2023-05-08T12:33:08.522Z,75.28
2023-05-08T12:35:36.341Z,74.96
2023-05-08T12:38:04.645Z,75.81
2023-05-08T12:40:33.656Z,75.40
2023-05-08T12:43:02.817Z,74.22
2023-05-08T12:45:34.911Z,73.94
2023-05-08T12:48:03.925Z,73.92
2023-05-08T12:50:35.710Z,73.34
2023-05-08T12:53:05.385Z,73.43
2023-05-08T12:55:34.349Z,73.90
2023-05-08T12:58:03.845Z,73.17
2023-05-08T13:00:40.109Z,72.61
2023-05-08T13:03:08.720Z,73.46
2023-05-08T13:05:37.288Z,73.63
2023-05-08T13:08:07.412Z,73.59
2023-05-08T13:10:46.345Z,73.81
2023-05-08T13:13:14.580Z,73.33
2023-05-08T13:15:44.226Z,72.89
2023-05-08T13:18:12.480Z,73.09
2023-05-08T13:20:40.589Z,72.74
2023-05-08T13:23:08.996Z,72.73
2023-05-08T13:25:37.507Z,73.71
2023-05-08T13:28:05.878Z,73.24
2023-05-08T13:30:33.785Z,73.17
2023-05-08T13:33:03.203Z,72.03
2023-05-08T13:35:31.449Z,72.04
2023-05-08T13:37:59.653Z,72.04
2023-05-08T13:40:27.873Z,72.38
2023-05-08T13:42:55.742Z,72.00
2023-05-08T13:45:23.748Z,72.54
2023-05-08T13:47:51.802Z,72.81
2023-05-08T13:50:22.327Z,73.45
2023-05-08T13:52:52.299Z,73.17
2023-05-08T13:55:23.230Z,73.44
2023-05-08T13:57:51.555Z,73.24
2023-05-08T14:00:20.280Z,71.31
2023-05-08T14:02:50.702Z,71.43
2023-05-08T14:05:19.510Z,71.27
2023-05-08T14:07:48.686Z,71.16
2023-05-08T14:10:17.432Z,71.10
2023-05-08T14:12:46.717Z,71.36
2023-05-08T14:15:14.860Z,71.37
2023-05-08T14:17:43.419Z,70.71
2023-05-08T14:20:12.331Z,71.01
2023-05-08T14:22:40.264Z,71.27
2023-05-08T14:25:10.771Z,72.92
2023-05-08T14:27:38.804Z,72.68
2023-05-08T14:30:08.202Z,72.83
2023-05-08T14:32:36.079Z,73.51
2023-05-08T14:35:03.973Z,73.15
2023-05-08T14:37:31.803Z,72.53
2023-05-08T14:39:59.612Z,72.41
2023-05-08T14:42:28.771Z,72.85
2023-05-08T14:44:57.017Z,73.65
2023-05-08T14:47:24.829Z,74.18
2023-05-08T14:49:53.734Z,74.38
2023-05-08T14:52:21.578Z,73.57
2023-05-08T14:54:53.453Z,73.66
2023-05-08T14:57:21.676Z,73.54
2023-05-08T15:02:21.523Z,73.42
2023-05-08T15:04:49.369Z,72.24
2023-05-08T15:07:17.185Z,72.15
2023-05-08T15:09:44.986Z,72.66
2023-05-08T15:12:12.851Z,72.87
2023-05-08T15:14:40.725Z,73.04
2023-05-08T15:17:10.000Z,72.85
2023-05-08T15:19:37.929Z,73.53
2023-05-08T15:22:05.852Z,73.68
2023-05-08T15:24:33.634Z,74.57
2023-05-08T15:27:01.553Z,74.58
2023-05-08T15:29:29.374Z,74.57
2023-05-08T15:31:57.349Z,74.89
2023-05-08T15:34:29.213Z,74.21
2023-05-08T15:37:00.718Z,73.52
2023-05-08T15:39:28.494Z,73.90
2023-05-08T15:41:56.340Z,73.45
2023-05-08T15:44:26.508Z,72.62
2023-05-08T15:46:56.694Z,72.02
2023-05-08T15:49:27.150Z,72.17
2023-05-08T15:51:55.141Z,72.04
2023-05-08T15:54:23.321Z,71.24
2023-05-08T15:56:51.207Z,70.60
2023-05-08T15:59:18.999Z,70.20
2023-05-08T16:01:47.097Z,69.18
2023-05-08T16:04:14.964Z,68.97
2023-05-08T16:06:44.177Z,68.95
2023-05-08T16:09:12.092Z,69.45
2023-05-08T16:11:39.994Z,68.98
2023-05-08T16:14:07.767Z,68.95
2023-05-08T16:16:35.638Z,67.83
2023-05-08T16:19:03.504Z,67.63
2023-05-08T16:21:31.453Z,68.09
2023-05-08T16:24:00.683Z,67.18
2023-05-08T16:26:28.482Z,68.06
2023-05-08T16:28:56.418Z,68.66
2023-05-08T16:31:24.200Z,68.91
2023-05-08T16:33:51.981Z,68.76
2023-05-08T16:36:19.785Z,68.99
2023-05-08T16:38:47.632Z,69.71
2023-05-08T16:41:17.482Z,70.29
2023-05-08T16:43:45.333Z,69.63
2023-05-08T16:46:13.197Z,69.57
2023-05-08T16:48:42.319Z,70.26
2023-05-08T16:51:10.098Z,70.51
2023-05-08T16:53:37.885Z,69.62
2023-05-08T16:56:05.829Z,69.02
2023-05-08T16:58:35.045Z,70.10
2023-05-08T17:01:02.885Z,69.27
2023-05-08T17:03:30.827Z,69.05
2023-05-08T17:05:58.638Z,70.08
2023-05-08T17:08:26.646Z,70.44
2023-05-08T17:10:54.813Z,70.63
2023-05-08T17:13:22.750Z,71.17
2023-05-08T17:15:51.938Z,70.37
2023-05-08T17:18:20.385Z,70.44
2023-05-08T17:20:48.179Z,70.91
2023-05-08T17:23:16.006Z,71.09
2023-05-08T17:25:43.835Z,71.16
2023-05-08T17:28:11.650Z,71.26
2023-05-08T17:30:39.785Z,71.23
2023-05-08T17:33:08.995Z,71.06
2023-05-08T17:35:36.826Z,71.61
2023-05-08T17:38:04.596Z,71.06
2023-05-08T17:40:32.532Z,71.71
2023-05-08T17:43:00.365Z,71.24
2023-05-08T17:45:28.232Z,71.55
2023-05-08T17:47:56.207Z,71.73
2023-05-08T17:50:25.741Z,72.29
2023-05-08T17:52:53.504Z,72.22
2023-05-08T17:55:21.327Z,71.94
2023-05-08T17:57:49.108Z,72.28
2023-05-08T18:00:17.734Z,72.06
2023-05-08T18:02:49.127Z,72.15
2023-05-08T18:05:17.133Z,72.07
2023-05-08T18:07:46.312Z,71.84
2023-05-08T18:10:14.331Z,71.96
2023-05-08T18:12:42.344Z,72.23
2023-05-08T18:15:12.726Z,72.06
2023-05-08T18:17:40.987Z,72.18
2023-05-08T18:20:11.328Z,72.83
2023-05-08T18:22:39.284Z,72.76
2023-05-08T18:25:09.933Z,72.79
2023-05-08T18:27:37.753Z,73.19
2023-05-08T18:30:06.655Z,73.28
2023-05-08T18:32:35.338Z,73.48
2023-05-08T18:35:03.167Z,73.44
2023-05-08T18:37:30.977Z,73.03
2023-05-08T18:39:58.763Z,73.37
2023-05-08T18:42:28.301Z,73.54
2023-05-08T18:44:56.408Z,73.89
2023-05-08T18:47:24.247Z,74.26
2023-05-08T18:49:52.439Z,74.19
2023-05-08T18:52:20.323Z,74.17
2023-05-08T18:54:48.155Z,74.61
2023-05-08T18:57:15.985Z,74.76
2023-05-08T18:59:52.712Z,74.85
2023-05-08T19:02:20.774Z,75.09
2023-05-08T19:04:48.565Z,74.73
2023-05-08T19:07:16.817Z,75.43
2023-05-08T19:09:44.584Z,75.17
2023-05-08T19:12:12.489Z,76.00
2023-05-08T19:14:40.541Z,75.38
2023-05-08T19:17:09.674Z,75.74
2023-05-08T19:19:37.528Z,76.54
2023-05-08T19:22:05.375Z,75.88
2023-05-08T19:24:34.250Z,76.01
2023-05-08T19:27:02.080Z,76.68
2023-05-08T19:29:29.996Z,77.31
2023-05-08T19:31:57.940Z,77.49
2023-05-08T19:34:27.526Z,77.02
2023-05-08T19:36:55.375Z,77.51
2023-05-08T19:39:23.168Z,77.95
2023-05-08T19:41:51.371Z,77.68
2023-05-08T19:44:19.241Z,78.20
2023-05-08T19:46:47.106Z,77.98
2023-05-08T19:49:17.335Z,78.31
2023-05-08T19:51:48.420Z,77.78
2023-05-08T19:54:16.489Z,78.41
2023-05-08T19:56:44.365Z,78.98
2023-05-08T19:59:12.194Z,78.62
2023-05-08T20:01:40.173Z,79.59
2023-05-08T20:04:08.130Z,79.41
2023-05-08T20:06:35.993Z,79.86
2023-05-08T20:09:05.331Z,79.48
2023-05-08T20:11:33.120Z,79.61
2023-05-08T20:14:00.948Z,79.21
2023-05-08T20:16:29.096Z,79.53
2023-05-08T20:18:57.281Z,79.56
2023-05-08T20:21:25.648Z,79.70
2023-05-08T20:23:53.516Z,80.48
2023-05-08T20:26:23.327Z,79.82
2023-05-08T20:28:51.973Z,80.35
2023-05-08T20:31:20.189Z,80.73
2023-05-08T20:33:48.184Z,81.18
2023-05-08T20:36:15.973Z,80.82
2023-05-08T20:38:43.786Z,80.88
2023-05-08T20:41:11.622Z,81.10
2023-05-08T20:43:41.028Z,81.16
2023-05-08T20:46:09.988Z,81.81
2023-05-08T20:48:38.545Z,81.41
2023-05-08T20:51:06.641Z,81.55
2023-05-08T20:53:34.559Z,81.68
2023-05-08T20:56:02.871Z,82.05
2023-05-08T20:58:33.986Z,81.67
2023-05-08T21:01:03.491Z,81.79
2023-05-08T21:03:32.452Z,81.49
2023-05-08T21:06:00.811Z,82.24
2023-05-08T21:08:28.932Z,81.65
2023-05-08T21:11:00.647Z,81.64
2023-05-08T21:13:28.900Z,82.63
2023-05-08T21:15:56.976Z,82.59
2023-05-08T21:18:27.510Z,82.29
2023-05-08T21:20:56.038Z,82.88
2023-05-08T21:23:24.733Z,82.88
2023-05-08T21:25:53.690Z,83.00
2023-05-08T21:28:22.410Z,82.58
2023-05-08T21:30:51.087Z,82.58
2023-05-08T21:33:19.350Z,82.69
2023-05-08T21:35:50.174Z,82.78
2023-05-08T21:38:22.134Z,82.24
2023-05-08T21:40:51.182Z,82.82
2023-05-08T21:43:25.353Z,82.96
2023-05-08T21:45:59.583Z,82.40
2023-05-08T21:48:29.335Z,82.22
2023-05-08T21:50:59.157Z,82.90
2023-05-08T21:53:28.265Z,83.18
2023-05-08T21:56:01.055Z,82.68
2023-05-08T21:58:30.140Z,82.91
2023-05-08T22:00:59.527Z,82.07
2023-05-08T22:03:31.556Z,82.91
2023-05-08T22:06:01.135Z,82.41
2023-05-08T22:08:31.514Z,82.96
2023-05-08T22:11:00.527Z,82.67
2023-05-08T22:13:30.626Z,82.82
2023-05-08T22:15:59.036Z,82.65
2023-05-08T22:18:27.303Z,83.48
2023-05-08T22:20:56.257Z,83.25
2023-05-08T22:23:25.919Z,83.34
2023-05-08T22:25:54.544Z,82.93
2023-05-08T22:28:23.986Z,83.21
2023-05-08T22:30:52.265Z,82.96
2023-05-08T22:33:21.117Z,82.55
2023-05-08T22:35:53.947Z,83.20
2023-05-08T22:38:22.443Z,83.29
2023-05-08T22:40:55.882Z,83.09
2023-05-08T22:43:24.366Z,82.95
2023-05-08T22:45:55.444Z,83.61
2023-05-08T22:48:36.279Z,83.48
2023-05-08T22:51:04.838Z,82.97
2023-05-08T22:53:33.335Z,82.88
2023-05-08T22:56:03.094Z,83.45
2023-05-08T22:58:31.658Z,82.59
2023-05-08T23:01:00.841Z,82.91
2023-05-08T23:03:29.170Z,83.51
2023-05-08T23:05:57.658Z,83.52
2023-05-08T23:08:26.820Z,83.32
2023-05-08T23:10:55.013Z,83.05
2023-05-08T23:13:28.401Z,82.98
2023-05-08T23:15:57.490Z,82.65
2023-05-08T23:18:25.762Z,82.83
2023-05-08T23:20:54.143Z,83.09
2023-05-08T23:23:22.396Z,83.18
2023-05-08T23:25:50.590Z,82.90
2023-05-08T23:28:18.736Z,83.71
2023-05-08T23:30:48.224Z,83.27
2023-05-08T23:33:16.339Z,83.63
2023-05-08T23:35:44.966Z,83.55
2023-05-08T23:38:13.155Z,83.24
2023-05-08T23:40:41.670Z,82.89
2023-05-08T23:43:10.129Z,83.48
2023-05-08T23:45:38.525Z,84.07
2023-05-08T23:48:08.665Z,83.37
2023-05-08T23:50:37.117Z,83.80
2023-05-08T23:53:05.449Z,83.38
2023-05-08T23:55:36.115Z,83.71
2023-05-08T23:58:04.396Z,83.75
